Time;durP1;ratioP1;P1;durP2;ratioP2;P2;SDS_P1;SDS_P2;PMS_P1;PMS_P2;Temp;Humidity;BMP_temperature;BMP_pressure;BME280_temperature;BME280_humidity;BME280_pressure;Samples;Min_cycle;Max_cycle;Signal;HPM_P1;HPM_P2
2021/04/22 00:00:24;;;;;;;12.13;2.83;;;5.40;99.90;;;;;;5036501;28;21026;-50
2021/04/22 00:02:50;;;;;;;13.40;3.17;;;5.40;99.90;;;;;;5020408;28;20683;-51
2021/04/22 00:05:23;;;;;;;12.60;2.57;;;5.50;99.90;;;;;;5022290;28;20214;-56
2021/04/22 00:07:50;;;;;;;17.40;4.43;;;5.50;99.90;;;;;;5016414;28;20574;-54
2021/04/22 00:10:19;;;;;;;15.90;2.77;;;5.50;99.90;;;;;;5038751;28;20214;-56
2021/04/22 00:12:46;;;;;;;11.07;2.97;;;5.50;99.90;;;;;;5020462;28;20208;-54
2021/04/22 00:15:15;;;;;;;15.30;3.07;;;5.50;99.90;;;;;;5021690;28;20922;-53
2021/04/22 00:17:41;;;;;;;10.33;2.87;;;5.50;99.90;;;;;;5025804;28;20574;-53
2021/04/22 00:20:09;;;;;;;5.97;1.63;;;5.50;99.90;;;;;;5016434;28;20376;-52
2021/04/22 00:22:35;;;;;;;11.57;2.80;;;5.50;99.90;;;;;;5017200;28;20222;-53
2021/04/22 00:25:02;;;;;;;14.93;2.90;;;5.50;99.90;;;;;;5030038;28;20564;-55
2021/04/22 00:27:28;;;;;;;12.80;2.70;;;5.50;99.90;;;;;;5031368;28;20218;-53
2021/04/22 00:29:55;;;;;;;10.73;3.13;;;5.50;99.90;;;;;;5027072;28;20192;-53
2021/04/22 00:32:21;;;;;;;11.67;2.50;;;5.50;99.90;;;;;;5023186;28;20191;-55
2021/04/22 00:34:47;;;;;;;13.97;2.80;;;5.50;99.90;;;;;;5026838;28;20609;-54
2021/04/22 00:37:13;;;;;;;12.33;2.63;;;5.50;99.90;;;;;;5010310;28;20356;-52
2021/04/22 00:39:40;;;;;;;13.90;3.37;;;5.50;99.90;;;;;;5027071;28;20200;-52
2021/04/22 00:42:06;;;;;;;12.53;3.60;;;5.50;99.90;;;;;;5016270;28;20211;-55
2021/04/22 00:44:34;;;;;;;9.53;3.10;;;5.50;99.90;;;;;;5025336;28;20215;-50
2021/04/22 00:47:01;;;;;;;10.77;2.67;;;5.50;99.90;;;;;;5021883;28;20196;-52
2021/04/22 00:49:27;;;;;;;11.93;2.60;;;5.50;99.90;;;;;;5018690;28;20319;-56
2021/04/22 00:51:54;;;;;;;14.03;3.20;;;5.50;99.90;;;;;;5021228;28;20723;-52
2021/04/22 00:54:21;;;;;;;7.70;2.67;;;5.50;99.90;;;;;;5022114;28;20202;-56
2021/04/22 00:56:50;;;;;;;11.00;2.90;;;5.40;99.90;;;;;;5033315;28;20414;-53
2021/04/22 00:59:16;;;;;;;11.00;2.70;;;5.40;99.90;;;;;;5016827;28;20196;-56
2021/04/22 01:01:42;;;;;;;7.43;2.20;;;5.40;99.90;;;;;;5024875;28;20716;-55
2021/04/22 01:04:09;;;;;;;15.07;3.10;;;5.40;99.90;;;;;;5021876;28;20914;-53
2021/04/22 01:06:36;;;;;;;10.70;2.70;;;5.40;99.90;;;;;;5041751;28;20198;-53
2021/04/22 01:09:03;;;;;;;10.33;2.47;;;5.40;99.90;;;;;;5022116;28;20207;-50
2021/04/22 01:11:30;;;;;;;14.37;2.60;;;5.40;99.90;;;;;;5040047;28;20231;-50
2021/04/22 01:13:57;;;;;;;11.20;2.60;;;5.50;99.90;;;;;;5007523;28;20203;-52
2021/04/22 01:16:23;;;;;;;15.20;3.07;;;5.50;99.90;;;;;;5022891;28;20188;-53
2021/04/22 01:18:49;;;;;;;9.27;3.47;;;5.50;99.90;;;;;;5022588;28;20195;-53
2021/04/22 01:21:23;;;;;;;9.10;3.27;;;5.50;99.90;;;;;;5016627;28;20220;-54
2021/04/22 01:23:49;;;;;;;10.80;3.07;;;5.50;99.90;;;;;;5020759;28;20199;-50
2021/04/22 01:26:19;;;;;;;15.47;2.43;;;5.60;99.90;;;;;;5026320;28;20215;-53
2021/04/22 01:28:45;;;;;;;13.70;2.33;;;5.60;99.90;;;;;;5033476;28;20200;-51
2021/04/22 01:31:12;;;;;;;9.97;2.60;;;5.60;99.90;;;;;;5015699;28;20212;-51
2021/04/22 01:33:38;;;;;;;9.90;2.17;;;5.60;99.90;;;;;;5024242;28;20202;-51
2021/04/22 01:36:05;;;;;;;11.40;2.50;;;5.60;99.90;;;;;;5033801;28;20192;-56
2021/04/22 01:38:32;;;;;;;14.10;3.13;;;5.60;99.90;;;;;;5011051;28;20249;-51
2021/04/22 01:41:00;;;;;;;9.50;2.43;;;5.70;99.90;;;;;;5022848;28;20223;-54
2021/04/22 01:43:27;;;;;;;11.33;2.93;;;5.70;99.90;;;;;;5038945;28;20194;-54
2021/04/22 01:45:53;;;;;;;18.57;2.63;;;5.70;99.90;;;;;;5017123;28;20239;-50
2021/04/22 01:48:19;;;;;;;12.10;2.57;;;5.80;99.90;;;;;;5021422;28;20191;-52
2021/04/22 01:50:46;;;;;;;12.50;2.87;;;5.80;99.90;;;;;;5023206;28;20224;-52
2021/04/22 01:53:13;;;;;;;18.80;4.00;;;5.80;99.90;;;;;;5015712;28;20192;-51
2021/04/22 01:55:41;;;;;;;11.97;2.90;;;5.90;99.90;;;;;;5017525;28;20690;-54
2021/04/22 01:58:10;;;;;;;14.70;3.27;;;5.90;99.90;;;;;;5037003;28;20248;-51
2021/04/22 02:00:39;;;;;;;9.30;2.70;;;5.90;99.90;;;;;;5019698;28;20219;-55
2021/04/22 02:03:06;;;;;;;10.53;2.13;;;6.00;99.90;;;;;;5019131;28;20188;-53
2021/04/22 02:05:33;;;;;;;16.90;2.50;;;6.00;99.90;;;;;;5034428;28;20711;-57
2021/04/22 02:07:59;;;;;;;9.83;2.57;;;6.00;99.90;;;;;;5027350;28;20223;-53
2021/04/22 02:10:25;;;;;;;13.93;2.67;;;6.00;99.90;;;;;;5009891;28;20777;-56
2021/04/22 02:12:53;;;;;;;12.70;2.60;;;6.00;99.90;;;;;;5038427;28;20297;-55
2021/04/22 02:15:21;;;;;;;11.60;2.50;;;6.00;99.90;;;;;;5024365;28;20270;-53
2021/04/22 02:17:47;;;;;;;8.93;2.93;;;6.10;99.90;;;;;;5022705;28;20195;-54
2021/04/22 02:20:15;;;;;;;13.30;2.67;;;6.10;99.90;;;;;;5019484;28;20222;-56
2021/04/22 02:22:42;;;;;;;9.90;2.27;;;6.10;99.90;;;;;;5019882;28;20200;-53
2021/04/22 02:25:11;;;;;;;13.17;3.37;;;6.10;99.90;;;;;;5019877;28;20243;-52
2021/04/22 02:27:38;;;;;;;12.30;2.70;;;6.10;99.90;;;;;;5024218;28;20265;-52
2021/04/22 02:30:09;;;;;;;13.50;2.50;;;6.20;99.90;;;;;;5027248;28;20196;-55
2021/04/22 02:32:35;;;;;;;15.57;2.40;;;6.10;99.90;;;;;;5019741;28;20204;-52
2021/04/22 02:35:02;;;;;;;7.73;2.27;;;6.20;99.90;;;;;;5021310;28;20192;-55
2021/04/22 02:37:28;;;;;;;13.30;2.53;;;6.20;99.90;;;;;;5030358;28;20213;-56
2021/04/22 02:39:54;;;;;;;6.33;2.03;;;6.20;99.90;;;;;;5016786;28;20265;-50
2021/04/22 02:42:20;;;;;;;15.23;2.57;;;6.20;99.90;;;;;;5020490;28;20199;-52
2021/04/22 02:44:46;;;;;;;12.13;2.50;;;6.20;99.90;;;;;;5035372;28;20207;-53
2021/04/22 02:47:13;;;;;;;5.87;1.80;;;6.20;99.90;;;;;;5015536;28;20263;-54
2021/04/22 02:49:40;;;;;;;13.80;3.40;;;6.20;99.90;;;;;;5023024;28;20649;-55
2021/04/22 02:52:06;;;;;;;8.77;2.50;;;6.20;99.90;;;;;;5019319;28;20216;-54
2021/04/22 02:54:32;;;;;;;8.00;2.00;;;6.20;99.90;;;;;;5019190;28;20203;-55
2021/04/22 02:56:59;;;;;;;15.73;2.37;;;6.30;99.90;;;;;;5014395;28;20257;-53
2021/04/22 02:59:25;;;;;;;9.37;2.50;;;6.30;99.90;;;;;;5034822;28;20299;-52
2021/04/22 03:01:51;;;;;;;11.47;2.37;;;6.30;99.90;;;;;;5025573;28;20220;-54
2021/04/22 03:04:18;;;;;;;6.73;2.23;;;6.30;99.90;;;;;;5026735;28;20253;-54
2021/04/22 03:06:44;;;;;;;11.73;2.97;;;6.20;99.90;;;;;;5033021;28;20713;-54
2021/04/22 03:09:10;;;;;;;8.40;1.70;;;6.30;99.90;;;;;;5018553;28;20213;-52
2021/04/22 03:11:36;;;;;;;10.13;2.20;;;6.30;99.90;;;;;;5026486;28;20262;-52
2021/04/22 03:14:03;;;;;;;7.63;2.37;;;6.20;99.90;;;;;;5019848;28;20257;-55
2021/04/22 03:16:29;;;;;;;10.90;2.00;;;6.30;99.90;;;;;;5036740;28;20846;-52
2021/04/22 03:18:55;;;;;;;11.93;2.33;;;6.30;99.90;;;;;;5020942;28;20200;-54
2021/04/22 03:21:22;;;;;;;8.97;2.07;;;6.30;99.90;;;;;;5025116;28;20917;-54
2021/04/22 03:23:48;;;;;;;6.17;2.13;;;6.20;99.90;;;;;;5025674;28;20203;-53
2021/04/22 03:26:14;;;;;;;12.00;2.63;;;6.30;99.90;;;;;;5019177;28;20227;-54
2021/04/22 03:28:40;;;;;;;15.90;2.60;;;6.30;99.90;;;;;;5025505;28;20625;-51
2021/04/22 03:31:07;;;;;;;10.77;2.43;;;6.30;99.90;;;;;;5028593;28;20223;-54
2021/04/22 03:33:33;;;;;;;10.50;2.30;;;6.30;99.90;;;;;;5027311;28;20200;-56
2021/04/22 03:35:59;;;;;;;16.30;2.47;;;6.30;99.90;;;;;;5031741;28;20200;-53
2021/04/22 03:38:26;;;;;;;9.60;2.00;;;6.30;99.90;;;;;;5029303;28;20188;-56
2021/04/22 03:40:52;;;;;;;16.40;2.73;;;6.30;99.90;;;;;;5031342;28;20285;-54
2021/04/22 03:43:19;;;;;;;10.73;2.10;;;6.30;99.90;;;;;;5041117;28;20199;-51
2021/04/22 03:45:45;;;;;;;10.67;1.80;;;6.30;99.90;;;;;;5017203;28;20222;-56
2021/04/22 03:48:11;;;;;;;12.17;2.40;;;6.30;99.90;;;;;;5041082;28;20183;-53
2021/04/22 03:50:37;;;;;;;13.80;2.90;;;6.30;99.90;;;;;;5022112;28;20227;-55
2021/04/22 03:53:03;;;;;;;13.87;3.07;;;6.30;99.90;;;;;;5022181;28;20223;-49
2021/04/22 03:55:30;;;;;;;6.07;2.17;;;6.30;99.90;;;;;;5025580;28;20684;-55
2021/04/22 03:57:57;;;;;;;13.07;2.40;;;6.30;99.90;;;;;;5019346;28;20219;-53
2021/04/22 04:00:24;;;;;;;13.93;2.67;;;6.30;99.90;;;;;;5023799;28;20907;-51
2021/04/22 04:02:50;;;;;;;13.33;2.47;;;6.30;99.90;;;;;;5024711;28;20215;-55
2021/04/22 04:05:17;;;;;;;10.23;2.67;;;6.30;99.90;;;;;;5020278;28;20571;-53
2021/04/22 04:07:44;;;;;;;16.40;2.67;;;6.30;99.90;;;;;;5025053;28;20695;-55
2021/04/22 04:10:11;;;;;;;14.53;2.47;;;6.30;99.90;;;;;;5034093;28;20696;-53
2021/04/22 04:12:38;;;;;;;17.67;2.30;;;6.30;99.90;;;;;;5032128;28;20196;-55
2021/04/22 04:15:07;;;;;;;15.07;2.93;;;6.30;99.90;;;;;;5021397;28;20323;-52
2021/04/22 04:17:33;;;;;;;15.00;2.70;;;6.30;99.90;;;;;;5014929;28;20236;-54
2021/04/22 04:20:00;;;;;;;9.87;2.67;;;6.30;99.90;;;;;;5021102;28;20564;-51
2021/04/22 04:22:26;;;;;;;10.83;3.27;;;6.30;99.90;;;;;;5018465;28;20739;-55
2021/04/22 04:24:52;;;;;;;12.23;2.30;;;6.30;99.90;;;;;;5023220;28;20334;-52
2021/04/22 04:27:18;;;;;;;12.67;2.57;;;6.40;99.90;;;;;;5022952;28;20231;-54
2021/04/22 04:29:46;;;;;;;12.93;2.37;;;6.40;99.90;;;;;;5020514;28;20204;-52
2021/04/22 04:32:12;;;;;;;13.53;3.37;;;6.40;99.90;;;;;;5021212;28;20932;-50
2021/04/22 04:34:38;;;;;;;17.87;3.20;;;6.40;99.90;;;;;;5015380;28;20212;-57
2021/04/22 04:37:05;;;;;;;15.53;2.77;;;6.40;99.90;;;;;;5020663;28;20188;-51
2021/04/22 04:39:31;;;;;;;13.50;2.43;;;6.40;99.90;;;;;;5024298;28;20276;-55
2021/04/22 04:41:58;;;;;;;11.77;3.40;;;6.40;99.90;;;;;;5021856;28;20216;-53
2021/04/22 04:44:24;;;;;;;7.63;2.20;;;6.40;99.90;;;;;;5019225;28;20964;-52
2021/04/22 04:46:51;;;;;;;14.03;2.90;;;6.40;99.90;;;;;;5023493;28;20203;-54
2021/04/22 04:49:17;;;;;;;8.00;2.27;;;6.40;99.90;;;;;;5013119;28;20211;-53
2021/04/22 04:51:43;;;;;;;16.30;3.47;;;6.40;99.90;;;;;;5034577;28;20565;-53
2021/04/22 04:54:09;;;;;;;14.10;3.00;;;6.40;99.90;;;;;;5016757;28;20204;-53
2021/04/22 04:56:35;;;;;;;12.43;2.50;;;6.40;99.90;;;;;;5024498;28;20204;-51
2021/04/22 04:59:02;;;;;;;12.33;4.57;;;6.40;99.90;;;;;;5016288;28;20204;-54
2021/04/22 05:01:28;;;;;;;10.50;2.77;;;6.40;99.90;;;;;;5024391;28;20226;-53
2021/04/22 05:03:55;;;;;;;13.67;2.70;;;6.40;99.90;;;;;;5024993;28;20274;-53
2021/04/22 05:06:21;;;;;;;14.53;3.13;;;6.40;99.90;;;;;;5015587;28;20207;-55
2021/04/22 05:08:48;;;;;;;19.87;3.00;;;6.50;99.90;;;;;;5032962;28;20680;-55
2021/04/22 05:11:14;;;;;;;12.30;2.90;;;6.50;99.90;;;;;;5026654;28;20273;-56
2021/04/22 05:13:40;;;;;;;18.70;3.00;;;6.50;99.90;;;;;;5024044;28;20665;-53
2021/04/22 05:16:06;;;;;;;18.47;2.90;;;6.50;99.90;;;;;;5015984;28;20813;-54
2021/04/22 05:18:33;;;;;;;15.20;3.07;;;6.50;99.90;;;;;;5023335;28;20220;-53
2021/04/22 05:21:00;;;;;;;15.83;2.77;;;6.50;99.90;;;;;;5013732;28;20688;-53
2021/04/22 05:23:26;;;;;;;10.53;2.30;;;6.50;99.90;;;;;;5031669;28;20199;-52
2021/04/22 05:25:54;;;;;;;8.83;2.77;;;6.50;99.90;;;;;;5030887;28;20219;-53
2021/04/22 05:28:21;;;;;;;8.00;2.17;;;6.60;99.90;;;;;;5022410;28;20271;-54
2021/04/22 05:30:47;;;;;;;12.13;2.50;;;6.60;99.90;;;;;;5019573;28;20220;-53
2021/04/22 05:33:14;;;;;;;15.60;2.73;;;6.60;99.90;;;;;;5020926;28;20499;-52
2021/04/22 05:35:41;;;;;;;14.77;2.53;;;6.60;99.90;;;;;;5017826;28;20197;-56
2021/04/22 05:38:08;;;;;;;10.70;2.63;;;6.60;99.90;;;;;;5013805;28;20191;-55
2021/04/22 05:40:35;;;;;;;14.60;2.77;;;6.60;99.90;;;;;;5021313;28;20220;-54
2021/04/22 05:43:01;;;;;;;13.30;3.17;;;6.60;99.90;;;;;;5022437;28;20468;-54
2021/04/22 05:45:27;;;;;;;11.43;2.53;;;6.70;99.90;;;;;;5018756;28;20215;-54
2021/04/22 05:47:54;;;;;;;8.93;2.73;;;6.70;99.90;;;;;;5020462;28;20200;-54
2021/04/22 05:50:21;;;;;;;12.63;2.10;;;6.60;99.90;;;;;;5028650;28;20207;-51
2021/04/22 05:52:47;;;;;;;12.83;2.70;;;6.60;99.90;;;;;;5022574;28;20645;-50
2021/04/22 05:55:15;;;;;;;13.73;2.70;;;6.70;99.90;;;;;;5027605;28;20192;-54
2021/04/22 05:57:41;;;;;;;10.33;2.07;;;6.70;99.90;;;;;;5019838;28;20207;-52
2021/04/22 06:00:11;;;;;;;17.70;2.80;;;6.80;99.90;;;;;;5014115;28;20196;-52
2021/04/22 06:02:37;;;;;;;16.60;2.73;;;6.80;99.90;;;;;;5022696;28;20214;-54
2021/04/22 06:05:04;;;;;;;10.83;2.70;;;6.80;99.90;;;;;;5020909;28;20216;-52
2021/04/22 06:07:30;;;;;;;8.87;2.40;;;6.90;99.90;;;;;;5008027;28;21315;-53
2021/04/22 06:09:56;;;;;;;16.77;2.57;;;6.90;99.90;;;;;;5032259;28;20210;-51
2021/04/22 06:12:23;;;;;;;12.20;3.00;;;6.90;99.90;;;;;;5021679;28;20208;-55
2021/04/22 06:14:49;;;;;;;14.43;2.40;;;6.90;99.90;;;;;;5018175;28;20192;-52
2021/04/22 06:17:15;;;;;;;13.30;2.67;;;7.00;99.90;;;;;;5014372;28;20256;-56
2021/04/22 06:19:42;;;;;;;17.23;3.43;;;7.00;99.90;;;;;;5022780;28;20206;-53
2021/04/22 06:22:08;;;;;;;13.60;3.07;;;6.90;99.90;;;;;;5012044;28;20224;-53
2021/04/22 06:24:34;;;;;;;14.10;2.60;;;6.90;99.90;;;;;;5013438;28;20208;-53
2021/04/22 06:27:00;;;;;;;12.00;2.40;;;6.90;99.90;;;;;;5021707;28;20201;-51
2021/04/22 06:29:27;;;;;;;10.20;2.90;;;6.90;99.90;;;;;;5017269;28;20963;-56
2021/04/22 06:31:55;;;;;;;12.03;2.73;;;6.90;99.90;;;;;;5022329;28;20638;-51
2021/04/22 06:34:22;;;;;;;7.00;2.37;;;6.90;99.90;;;;;;5023760;28;20203;-52
2021/04/22 06:36:48;;;;;;;13.17;3.13;;;6.90;99.90;;;;;;5027651;28;20194;-57
2021/04/22 06:39:15;;;;;;;12.67;2.77;;;7.00;99.90;;;;;;5020801;28;20902;-54
2021/04/22 06:41:41;;;;;;;17.17;3.10;;;7.00;99.90;;;;;;5039762;28;20625;-52
2021/04/22 06:44:07;;;;;;;14.03;2.83;;;7.00;99.90;;;;;;5030552;28;20617;-53
2021/04/22 06:46:35;;;;;;;12.23;2.90;;;7.00;99.90;;;;;;5025994;28;20221;-55
2021/04/22 06:49:01;;;;;;;10.43;2.63;;;7.00;99.90;;;;;;5020608;28;20204;-52
2021/04/22 06:51:28;;;;;;;14.93;3.40;;;7.10;99.90;;;;;;5025121;28;20207;-55
2021/04/22 06:53:54;;;;;;;5.80;2.50;;;7.10;99.90;;;;;;5021807;28;20660;-52
2021/04/22 06:56:20;;;;;;;12.90;2.63;;;7.20;99.90;;;;;;5031001;28;20195;-53
2021/04/22 06:58:46;;;;;;;14.33;2.63;;;7.30;99.90;;;;;;5026727;28;20196;-53
2021/04/22 07:01:12;;;;;;;12.70;2.97;;;7.40;99.90;;;;;;5016238;28;20228;-54
2021/04/22 07:03:39;;;;;;;14.00;2.80;;;7.50;99.90;;;;;;5022868;28;20196;-54
2021/04/22 07:06:06;;;;;;;15.23;4.33;;;7.60;99.90;;;;;;5026362;28;20219;-54
2021/04/22 07:08:32;;;;;;;12.13;2.90;;;7.50;99.90;;;;;;5013952;28;20255;-50
2021/04/22 07:10:59;;;;;;;13.67;2.80;;;7.50;99.90;;;;;;5038808;28;20596;-54
2021/04/22 07:13:25;;;;;;;8.03;2.23;;;7.50;99.90;;;;;;5014680;28;20212;-52
2021/04/22 07:15:51;;;;;;;10.40;2.60;;;7.50;99.90;;;;;;5022059;28;20237;-54
2021/04/22 07:18:17;;;;;;;10.50;3.03;;;7.50;99.90;;;;;;5028604;28;20204;-54
2021/04/22 07:20:44;;;;;;;13.93;2.50;;;7.50;99.90;;;;;;5019549;28;20211;-55
2021/04/22 07:23:13;;;;;;;8.23;2.20;;;7.60;99.90;;;;;;5027010;28;20584;-55
2021/04/22 07:25:39;;;;;;;7.87;2.17;;;7.70;99.90;;;;;;5012138;28;20212;-53
2021/04/22 07:28:07;;;;;;;8.67;2.67;;;7.80;99.90;;;;;;5025488;28;20235;-56
2021/04/22 07:30:33;;;;;;;11.43;2.37;;;7.80;99.90;;;;;;5018577;28;20230;-55
2021/04/22 07:32:59;;;;;;;16.00;2.80;;;7.90;99.90;;;;;;5023001;28;20203;-52
2021/04/22 07:35:26;;;;;;;11.80;2.40;;;8.00;99.90;;;;;;5013937;28;20207;-53
2021/04/22 07:37:53;;;;;;;9.17;2.67;;;8.10;99.90;;;;;;5025103;28;20197;-54
2021/04/22 07:40:21;;;;;;;7.80;2.07;;;8.20;99.90;;;;;;5027853;28;20595;-53
2021/04/22 07:42:47;;;;;;;7.03;2.63;;;8.30;99.90;;;;;;5026924;28;20297;-54
2021/04/22 07:45:15;;;;;;;9.27;3.00;;;8.30;99.90;;;;;;5025196;28;20204;-55
2021/04/22 07:47:41;;;;;;;9.57;2.70;;;8.30;99.90;;;;;;5014254;28;20204;-54
2021/04/22 07:50:08;;;;;;;7.30;2.50;;;8.20;99.90;;;;;;5020973;28;20208;-54
2021/04/22 07:52:34;;;;;;;9.03;2.70;;;8.20;99.90;;;;;;5021384;28;20211;-56
2021/04/22 07:55:02;;;;;;;12.50;3.17;;;8.10;99.90;;;;;;5025659;28;20191;-55
2021/04/22 07:57:28;;;;;;;12.07;2.97;;;8.20;99.90;;;;;;5011005;28;20215;-50
2021/04/22 07:59:54;;;;;;;12.00;2.37;;;8.20;99.90;;;;;;5018236;28;20949;-55
2021/04/22 08:02:20;;;;;;;7.00;2.63;;;8.30;99.90;;;;;;5019773;28;20583;-53
2021/04/22 08:04:47;;;;;;;13.27;2.73;;;8.30;99.90;;;;;;5018755;28;20207;-50
2021/04/22 08:07:14;;;;;;;12.30;2.53;;;8.30;99.90;;;;;;5016780;28;20220;-53
2021/04/22 08:09:40;;;;;;;12.53;2.93;;;8.40;99.90;;;;;;5014048;28;20261;-52
2021/04/22 08:12:07;;;;;;;10.63;2.63;;;8.40;99.90;;;;;;5010220;28;20234;-55
2021/04/22 08:14:34;;;;;;;10.97;2.83;;;8.40;99.90;;;;;;5009492;28;20212;-53
2021/04/22 08:17:00;;;;;;;12.30;2.70;;;8.40;99.90;;;;;;5021221;28;20203;-51
2021/04/22 08:19:26;;;;;;;10.43;2.40;;;8.30;99.90;;;;;;5021592;28;20204;-52
2021/04/22 08:21:53;;;;;;;7.97;2.60;;;8.30;99.90;;;;;;5016149;28;20228;-49
2021/04/22 08:24:19;;;;;;;13.83;3.03;;;8.30;99.90;;;;;;5015257;28;20213;-53
2021/04/22 08:26:45;;;;;;;16.77;3.40;;;8.40;99.90;;;;;;5019916;28;20231;-55
2021/04/22 08:29:12;;;;;;;8.90;3.07;;;8.40;99.90;;;;;;4997234;28;20290;-50
2021/04/22 08:31:38;;;;;;;12.27;3.00;;;8.40;99.90;;;;;;5023848;28;20898;-50
2021/04/22 08:34:07;;;;;;;9.20;2.47;;;8.50;99.90;;;;;;5007767;28;20203;-52
2021/04/22 08:36:34;;;;;;;7.70;2.70;;;8.60;99.90;;;;;;5014569;28;20187;-51
2021/04/22 08:39:01;;;;;;;9.37;2.87;;;8.60;99.90;;;;;;5017226;28;20199;-51
2021/04/22 08:41:27;;;;;;;6.17;2.97;;;8.60;99.90;;;;;;5021367;28;20361;-54
2021/04/22 08:43:54;;;;;;;8.27;2.40;;;8.50;99.90;;;;;;5015290;28;20200;-51
2021/04/22 08:46:23;;;;;;;11.03;2.67;;;8.50;99.70;;;;;;5017247;28;20216;-49
2021/04/22 08:48:49;;;;;;;10.27;2.43;;;8.60;99.90;;;;;;5020949;28;20681;-51
2021/04/22 08:51:16;;;;;;;13.60;3.10;;;8.60;99.80;;;;;;5018678;28;20219;-52
2021/04/22 08:53:45;;;;;;;6.83;2.70;;;8.70;99.90;;;;;;5019276;28;20207;-52
2021/04/22 08:56:12;;;;;;;12.73;3.20;;;8.80;99.50;;;;;;5023296;28;20291;-51
2021/04/22 08:58:38;;;;;;;11.60;2.93;;;8.80;99.60;;;;;;5022452;28;20267;-52
2021/04/22 09:01:08;;;;;;;7.50;2.43;;;8.90;99.00;;;;;;5027181;28;20227;-53
2021/04/22 09:03:36;;;;;;;15.03;2.37;;;9.00;97.70;;;;;;5023602;28;20211;-52
2021/04/22 09:06:02;;;;;;;15.53;2.97;;;9.00;97.20;;;;;;5019942;28;20610;-53
2021/04/22 09:08:34;;;;;;;13.23;3.30;;;9.00;97.40;;;;;;5009931;28;20271;-55
2021/04/22 09:11:00;;;;;;;15.30;3.20;;;9.00;97.70;;;;;;5016698;28;20220;-52
2021/04/22 09:13:27;;;;;;;6.97;2.60;;;9.00;98.30;;;;;;5026054;28;20282;-53
2021/04/22 09:16:04;;;;;;;13.33;3.17;;;8.90;98.80;;;;;;5012151;28;20274;-54
2021/04/22 09:18:38;;;;;;;9.33;2.97;;;8.90;98.50;;;;;;5006235;28;20192;-53
2021/04/22 09:21:05;;;;;;;11.00;3.10;;;8.90;97.80;;;;;;5014375;28;20455;-52
2021/04/22 09:23:31;;;;;;;5.57;2.70;;;9.00;97.80;;;;;;5015287;28;20241;-54
2021/04/22 09:25:59;;;;;;;11.43;2.90;;;9.00;96.30;;;;;;5011717;28;20216;-55
2021/04/22 09:28:37;;;;;;;4.43;2.57;;;9.10;95.80;;;;;;5014527;28;20231;-51
2021/04/22 09:31:04;;;;;;;8.53;3.00;;;9.10;95.30;;;;;;5008414;28;20310;-54
2021/04/22 09:33:35;;;;;;;9.50;3.20;;;9.10;95.90;;;;;;5006104;28;20209;-51
2021/04/22 09:36:08;;;;;;;10.63;3.10;;;9.10;96.80;;;;;;5015027;28;20208;-52
2021/04/22 09:38:35;;;;;;;10.83;3.23;;;9.10;98.00;;;;;;5013675;28;20832;-52
2021/04/22 09:41:10;;;;;;;11.00;2.77;;;9.00;98.70;;;;;;5011889;28;20223;-56
2021/04/22 09:43:36;;;;;;;11.00;2.77;;;9.00;99.20;;;;;;5012190;28;20210;-55
2021/04/22 09:46:02;;;;;;;8.23;3.43;;;9.10;98.10;;;;;;5023416;28;20584;-55
2021/04/22 09:48:29;;;;;;;11.50;3.50;;;9.10;97.70;;;;;;5004414;28;20206;-57
2021/04/22 09:50:55;;;;;;;10.97;3.07;;;9.20;97.10;;;;;;5019229;28;20228;-56
2021/04/22 09:53:25;;;;;;;8.67;2.77;;;9.20;96.30;;;;;;5015696;28;20684;-53
2021/04/22 09:55:53;;;;;;;8.63;2.53;;;9.30;95.30;;;;;;5014759;28;20278;-56
2021/04/22 09:58:27;;;;;;;11.53;3.13;;;9.30;95.40;;;;;;5018656;28;20216;-56
2021/04/22 10:00:54;;;;;;;8.83;2.77;;;9.30;94.60;;;;;;5019400;28;20204;-54
2021/04/22 10:03:20;;;;;;;8.47;2.93;;;9.30;95.20;;;;;;5013866;28;20203;-56
2021/04/22 10:05:55;;;;;;;15.77;3.33;;;9.30;95.80;;;;;;5032875;28;20209;-55
2021/04/22 10:08:23;;;;;;;11.30;3.20;;;9.40;95.10;;;;;;5018533;28;20211;-57
2021/04/22 10:10:58;;;;;;;5.13;2.63;;;9.60;95.00;;;;;;5030657;28;20206;-56
2021/04/22 10:13:24;;;;;;;9.53;2.70;;;9.80;94.00;;;;;;5009472;28;20207;-58
2021/04/22 10:15:51;;;;;;;7.20;2.83;;;9.70;94.10;;;;;;5023649;28;20188;-52
2021/04/22 10:18:18;;;;;;;6.27;3.10;;;9.60;94.30;;;;;;5005431;28;20211;-58
2021/04/22 10:20:44;;;;;;;10.40;2.70;;;9.70;94.70;;;;;;5028641;28;20229;-55
2021/04/22 10:23:11;;;;;;;8.53;3.10;;;9.90;94.70;;;;;;5016083;28;20195;-55
2021/04/22 10:25:43;;;;;;;6.83;2.60;;;10.10;94.20;;;;;;5037707;28;20746;-54
2021/04/22 10:28:11;;;;;;;9.37;2.73;;;10.10;93.50;;;;;;5013214;28;20211;-55
2021/04/22 10:30:39;;;;;;;7.50;2.80;;;10.10;93.00;;;;;;5011996;28;20756;-57
2021/04/22 10:33:08;;;;;;;12.53;3.33;;;10.20;93.20;;;;;;5005266;28;20687;-55
2021/04/22 10:35:36;;;;;;;10.17;2.37;;;10.10;92.80;;;;;;5003496;28;20208;-57
2021/04/22 10:38:04;;;;;;;12.40;2.27;;;9.90;93.40;;;;;;5015231;28;20200;-51
2021/04/22 10:40:32;;;;;;;12.87;3.30;;;9.80;93.00;;;;;;5019220;28;20220;-54
2021/04/22 10:43:01;;;;;;;8.37;2.53;;;9.80;93.20;;;;;;5017032;28;20222;-54
2021/04/22 10:45:28;;;;;;;4.90;2.53;;;9.90;92.70;;;;;;5016754;28;21003;-56
2021/04/22 10:47:55;;;;;;;5.10;2.73;;;10.10;91.90;;;;;;5021592;28;20196;-51
2021/04/22 10:50:26;;;;;;;6.07;2.20;;;10.10;91.20;;;;;;5006386;28;20233;-55
2021/04/22 10:52:53;;;;;;;12.53;2.40;;;10.00;91.40;;;;;;5033107;28;20203;-54
2021/04/22 10:55:23;;;;;;;9.47;2.20;;;9.90;91.90;;;;;;5015746;28;20261;-55
2021/04/22 10:57:52;;;;;;;9.07;2.07;;;10.00;91.80;;;;;;5009940;28;20531;-52
2021/04/22 11:00:24;;;;;;;7.93;2.63;;;10.20;90.80;;;;;;5009614;28;20270;-54
2021/04/22 11:02:51;;;;;;;3.67;1.83;;;10.10;90.50;;;;;;5011860;28;20197;-50
2021/04/22 11:05:23;;;;;;;7.10;1.90;;;10.10;91.00;;;;;;5014648;28;20187;-52
2021/04/22 11:08:03;;;;;;;4.60;2.20;;;10.10;91.60;;;;;;5005265;28;20270;-55
2021/04/22 11:10:34;;;;;;;3.93;2.20;;;10.10;92.40;;;;;;5015037;28;20299;-54
2021/04/22 11:13:15;;;;;;;9.47;2.60;;;10.10;92.60;;;;;;5007451;28;20200;-55
2021/04/22 11:15:45;;;;;;;5.63;2.37;;;10.10;91.80;;;;;;5012396;28;20852;-55
2021/04/22 11:18:13;;;;;;;5.50;2.10;;;10.00;91.80;;;;;;5022648;28;20196;-53
2021/04/22 11:20:41;;;;;;;4.80;2.20;;;9.90;92.60;;;;;;5017945;28;20310;-51
2021/04/22 11:23:16;;;;;;;8.60;2.30;;;9.90;93.50;;;;;;5005191;28;20692;-53
2021/04/22 11:25:50;;;;;;;6.07;2.30;;;9.70;93.10;;;;;;5018584;28;20661;-53
2021/04/22 11:28:27;;;;;;;5.93;2.43;;;9.70;93.80;;;;;;5012948;28;20208;-55
2021/04/22 11:31:06;;;;;;;7.57;2.60;;;9.70;94.40;;;;;;5025725;28;20223;-52
2021/04/22 11:33:32;;;;;;;8.57;2.60;;;9.60;95.80;;;;;;5020749;28;20200;-54
2021/04/22 11:36:09;;;;;;;5.30;2.30;;;9.60;96.50;;;;;;5027050;28;20665;-54
2021/04/22 11:38:35;;;;;;;6.93;2.77;;;9.60;97.20;;;;;;5009873;28;20575;-53
2021/04/22 11:41:06;;;;;;;3.40;2.17;;;9.80;97.60;;;;;;5012531;28;20271;-54
2021/04/22 11:43:32;;;;;;;4.93;2.00;;;9.90;95.00;;;;;;5019054;28;20273;-51
2021/04/22 11:45:59;;;;;;;6.30;2.30;;;9.90;94.90;;;;;;5018250;28;20350;-57
2021/04/22 11:48:37;;;;;;;5.10;2.30;;;9.80;94.70;;;;;;5025085;28;20229;-54
2021/04/22 11:51:04;;;;;;;9.20;2.60;;;9.70;94.20;;;;;;5015052;28;20285;-55
2021/04/22 11:53:34;;;;;;;18.30;3.93;;;9.70;94.90;;;;;;5020538;28;20214;-54
2021/04/22 11:56:01;;;;;;;6.23;3.17;;;9.60;95.80;;;;;;5031363;28;20230;-51
2021/04/22 11:58:28;;;;;;;6.53;2.93;;;9.60;96.90;;;;;;5033912;28;20200;-52
2021/04/22 12:00:56;;;;;;;5.13;2.40;;;9.60;98.20;;;;;;5021252;28;20219;-53
2021/04/22 12:03:25;;;;;;;9.67;3.13;;;9.50;99.30;;;;;;5021155;28;20820;-48
2021/04/22 12:05:52;;;;;;;7.07;3.23;;;9.40;99.90;;;;;;5011710;28;20219;-49
2021/04/22 12:08:18;;;;;;;8.90;3.50;;;9.40;99.90;;;;;;5002997;28;20212;-53
2021/04/22 12:10:48;;;;;;;5.57;2.60;;;9.50;99.90;;;;;;5010367;28;20224;-52
2021/04/22 12:13:16;;;;;;;6.47;2.63;;;9.50;99.90;;;;;;5011340;28;20203;-50
2021/04/22 12:15:45;;;;;;;6.17;3.07;;;9.40;99.90;;;;;;5017104;28;20200;-53
2021/04/22 12:18:20;;;;;;;4.73;2.80;;;9.40;99.90;;;;;;5021152;28;20208;-50
2021/04/22 12:20:47;;;;;;;6.37;2.87;;;9.40;99.90;;;;;;5016866;28;20575;-52
2021/04/22 12:23:13;;;;;;;5.03;3.30;;;9.40;99.90;;;;;;5025058;28;20196;-52
2021/04/22 12:25:41;;;;;;;7.30;3.20;;;9.40;99.90;;;;;;5008770;28;20220;-51
2021/04/22 12:28:08;;;;;;;8.83;3.27;;;9.40;99.90;;;;;;5027229;28;20609;-50
2021/04/22 12:30:39;;;;;;;5.97;3.47;;;9.30;99.90;;;;;;5019616;28;20220;-53
2021/04/22 12:33:09;;;;;;;6.77;3.07;;;9.30;99.90;;;;;;5021529;28;20227;-48
2021/04/22 12:35:37;;;;;;;6.43;2.87;;;9.30;99.90;;;;;;5023442;28;20504;-53
2021/04/22 12:38:20;;;;;;;8.00;3.13;;;9.30;99.90;;;;;;5031629;28;20443;-48
2021/04/22 12:40:57;;;;;;;10.87;3.13;;;9.40;99.90;;;;;;5031963;28;20242;-49
2021/04/22 12:43:24;;;;;;;15.17;3.50;;;9.50;99.90;;;;;;5029570;28;20679;-49
2021/04/22 12:45:50;;;;;;;8.40;3.33;;;9.80;99.90;;;;;;5011715;28;20213;-48
2021/04/22 12:48:16;;;;;;;8.60;3.27;;;9.90;99.90;;;;;;5012341;28;20206;-51
2021/04/22 12:50:45;;;;;;;9.63;3.80;;;9.90;99.80;;;;;;5020980;28;20227;-51